Aviation Digital Data Service (ADDS)

Output produced by METARs form (1907 UTC 28 August 2015)
found at http://aviationweather.gov/adds/metars/
 
KJAX 281743Z 2818/2918 08010G15KT P6SM VCTS SCT020 BKN030CB BKN200 
     TEMPO 2818/2822 VRB20G30KT 3SM +TSRA BR 
     FM282300 08008KT P6SM VCSH SCT025 BKN050 OVC200 
     FM290200 11006KT P6SM VCSH SCT025 BKN070 BKN250